createdAt,value
2023-03-22T00:00:46.466Z,10.83
2023-03-22T00:01:46.449Z,10.84
2023-03-22T00:02:46.534Z,10.83
2023-03-22T00:03:46.501Z,10.81
2023-03-22T00:04:46.381Z,10.83
2023-03-22T00:05:45.678Z,10.81
2023-03-22T00:06:46.384Z,10.84
2023-03-22T00:07:46.364Z,10.91
2023-03-22T00:08:46.360Z,10.86
2023-03-22T00:09:46.310Z,10.84
2023-03-22T00:10:46.555Z,10.81
2023-03-22T00:11:46.309Z,10.84
2023-03-22T00:12:46.309Z,10.84
2023-03-22T00:13:46.300Z,10.86
2023-03-22T00:14:46.261Z,10.91
2023-03-22T00:15:46.285Z,10.91
2023-03-22T00:16:46.957Z,10.92
2023-03-22T00:17:46.238Z,10.88
2023-03-22T00:18:46.214Z,10.86
2023-03-22T00:19:46.183Z,10.83
2023-03-22T00:20:46.197Z,10.80
2023-03-22T00:21:46.179Z,10.83
2023-03-22T00:22:46.173Z,10.81
2023-03-22T00:23:46.168Z,10.81
2023-03-22T00:24:46.114Z,10.80
2023-03-22T00:25:46.118Z,10.83
2023-03-22T00:26:46.121Z,10.83
2023-03-22T00:27:45.843Z,10.81
2023-03-22T00:28:45.848Z,10.80
2023-03-22T00:29:45.852Z,10.80
2023-03-22T00:30:46.062Z,10.77
2023-03-22T00:31:46.152Z,10.77
2023-03-22T00:32:45.857Z,10.76
2023-03-22T00:33:46.852Z,10.74
2023-03-22T00:34:45.868Z,10.73
2023-03-22T00:35:46.005Z,10.73
2023-03-22T00:36:45.981Z,10.74
2023-03-22T00:37:45.867Z,10.73
2023-03-22T00:38:45.964Z,10.68
2023-03-22T00:39:45.909Z,10.68
2023-03-22T00:40:45.593Z,10.74
2023-03-22T00:41:45.925Z,10.73
2023-03-22T00:42:45.861Z,10.68
2023-03-22T00:43:45.864Z,10.66
2023-03-22T00:44:46.101Z,10.62
2023-03-22T00:45:45.885Z,10.62
2023-03-22T00:46:45.839Z,10.63
2023-03-22T00:47:45.852Z,10.59
2023-03-22T00:48:45.819Z,10.62
2023-03-22T00:49:45.786Z,10.65
2023-03-22T00:50:46.514Z,10.65
2023-03-22T00:51:45.790Z,10.63
2023-03-22T00:52:45.758Z,10.60
2023-03-22T00:53:45.319Z,10.56
2023-03-22T00:54:45.716Z,10.51
2023-03-22T00:55:45.739Z,10.46
2023-03-22T00:56:45.723Z,10.51
2023-03-22T00:57:45.698Z,10.51
2023-03-22T00:58:45.684Z,10.56
2023-03-22T00:59:45.662Z,10.62
2023-03-22T01:00:45.710Z,10.63
2023-03-22T01:01:45.646Z,10.63
2023-03-22T01:02:45.626Z,10.62
2023-03-22T01:03:45.666Z,10.63
2023-03-22T01:04:45.590Z,10.62
2023-03-22T01:05:45.559Z,10.60
2023-03-22T01:06:45.570Z,10.58
2023-03-22T01:07:46.260Z,10.56
2023-03-22T01:08:45.540Z,10.56
2023-03-22T01:09:45.526Z,10.58
2023-03-22T01:10:45.486Z,10.55
2023-03-22T01:11:45.503Z,10.58
2023-03-22T01:12:45.496Z,10.68
2023-03-22T01:13:45.465Z,10.74
2023-03-22T01:14:45.458Z,10.80
2023-03-22T01:15:45.418Z,10.84
2023-03-22T01:16:45.437Z,10.83
2023-03-22T01:17:45.425Z,10.83
2023-03-22T01:18:45.624Z,10.81
2023-03-22T01:19:45.399Z,10.83
2023-03-22T01:20:45.348Z,10.86
2023-03-22T01:21:45.353Z,10.88
2023-03-22T01:22:45.340Z,10.96
2023-03-22T01:23:45.339Z,11.02
2023-03-22T01:24:46.038Z,11.02
2023-03-22T01:25:45.279Z,11.07
2023-03-22T01:26:45.291Z,11.06
2023-03-22T01:27:45.281Z,11.09
2023-03-22T01:28:45.257Z,11.13
2023-03-22T01:29:45.265Z,11.11
2023-03-22T01:30:45.257Z,11.10
2023-03-22T01:31:45.214Z,11.10
2023-03-22T01:32:45.223Z,11.10
2023-03-22T01:33:45.196Z,11.16
2023-03-22T01:34:45.182Z,11.17
2023-03-22T01:35:44.876Z,11.17
2023-03-22T01:36:45.145Z,11.13
2023-03-22T01:37:44.837Z,11.10
2023-03-22T01:38:44.870Z,11.10
2023-03-22T01:39:45.121Z,11.06
2023-03-22T01:40:45.074Z,11.07
2023-03-22T01:41:44.910Z,11.06
2023-03-22T01:42:45.088Z,11.11
2023-03-22T01:43:44.922Z,11.16
2023-03-22T01:44:44.821Z,11.11
2023-03-22T01:45:44.908Z,11.16
2023-03-22T01:46:44.908Z,11.19
2023-03-22T01:47:44.974Z,11.19
2023-03-22T01:48:45.035Z,11.19
2023-03-22T01:49:44.918Z,11.21
2023-03-22T01:50:44.940Z,11.21
2023-03-22T01:51:44.916Z,11.25
2023-03-22T01:52:44.933Z,11.24
2023-03-22T01:53:45.656Z,11.20
2023-03-22T01:54:45.628Z,11.25
2023-03-22T01:55:45.625Z,11.25
2023-03-22T01:56:45.615Z,11.24
2023-03-22T01:57:45.590Z,11.21
2023-03-22T01:58:45.573Z,11.25
2023-03-22T01:59:44.844Z,11.19
2023-03-22T02:00:45.558Z,11.16
2023-03-22T02:01:45.624Z,11.11
2023-03-22T02:02:45.555Z,11.13
2023-03-22T02:03:44.797Z,11.14
2023-03-22T02:04:45.492Z,11.19
2023-03-22T02:05:45.498Z,11.11
2023-03-22T02:06:44.758Z,11.14
2023-03-22T02:07:44.747Z,11.20
2023-03-22T02:08:44.727Z,11.17
2023-03-22T02:09:44.708Z,11.11
2023-03-22T02:10:44.667Z,11.11
2023-03-22T02:11:44.683Z,11.11
2023-03-22T02:12:44.657Z,11.13
2023-03-22T02:13:44.649Z,11.10
2023-03-22T02:14:44.645Z,11.10
2023-03-22T02:15:44.646Z,11.09
2023-03-22T02:16:44.606Z,11.03
2023-03-22T02:17:44.599Z,11.01
2023-03-22T02:18:44.584Z,11.02
2023-03-22T02:19:44.582Z,11.01
2023-03-22T02:20:44.938Z,10.99
2023-03-22T02:21:45.268Z,10.92
2023-03-22T02:22:44.533Z,10.94
2023-03-22T02:23:44.519Z,10.91
2023-03-22T02:24:44.504Z,10.89
2023-03-22T02:25:44.463Z,10.84
2023-03-22T02:26:44.473Z,10.81
2023-03-22T02:27:44.461Z,10.74
2023-03-22T02:28:44.455Z,10.74
2023-03-22T02:29:44.432Z,10.74
2023-03-22T02:30:44.398Z,10.73
2023-03-22T02:31:44.404Z,10.68
2023-03-22T02:32:44.391Z,10.66
2023-03-22T02:33:44.382Z,10.65
2023-03-22T02:34:44.358Z,10.60
2023-03-22T02:35:44.441Z,10.60
2023-03-22T02:36:44.321Z,10.63
2023-03-22T02:37:44.320Z,10.66
2023-03-22T02:38:44.531Z,10.63
2023-03-22T02:39:44.300Z,10.65
2023-03-22T02:40:44.277Z,10.71
2023-03-22T02:41:44.245Z,10.76
2023-03-22T02:42:44.246Z,10.71
2023-03-22T02:43:44.235Z,10.73
2023-03-22T02:44:44.225Z,10.73
2023-03-22T02:45:44.206Z,10.76
2023-03-22T02:46:44.216Z,10.70
2023-03-22T02:47:43.999Z,10.62
2023-03-22T02:48:44.175Z,10.63
2023-03-22T02:49:43.971Z,10.60
2023-03-22T02:50:44.166Z,10.56
2023-03-22T02:51:44.115Z,10.55
2023-03-22T02:52:44.124Z,10.51
2023-03-22T02:53:43.506Z,10.52
2023-03-22T02:54:44.758Z,10.43
2023-03-22T02:55:44.082Z,10.51
2023-03-22T02:56:44.043Z,10.47
2023-03-22T02:57:43.639Z,10.47
2023-03-22T02:58:44.039Z,10.42
2023-03-22T02:59:44.020Z,10.37
2023-03-22T03:00:43.790Z,10.34
2023-03-22T03:01:43.792Z,10.32
2023-03-22T03:02:43.979Z,10.34
2023-03-22T03:03:43.851Z,10.32
2023-03-22T03:04:43.879Z,10.28
2023-03-22T03:05:43.920Z,10.28
2023-03-22T03:06:44.636Z,10.24
2023-03-22T03:07:44.627Z,10.21
2023-03-22T03:08:44.614Z,10.18
2023-03-22T03:09:44.870Z,10.22
2023-03-22T03:10:44.589Z,10.21
2023-03-22T03:11:43.829Z,10.17
2023-03-22T03:12:44.568Z,10.10
2023-03-22T03:13:44.549Z,10.06
2023-03-22T03:14:44.539Z,10.04
2023-03-22T03:15:44.515Z,10.03
2023-03-22T03:16:44.543Z,9.99
2023-03-22T03:17:44.509Z,9.96
2023-03-22T03:18:43.753Z,9.94
2023-03-22T03:19:43.744Z,9.91
2023-03-22T03:20:43.745Z,9.83
2023-03-22T03:21:43.704Z,9.81
2023-03-22T03:22:43.714Z,9.75
2023-03-22T03:23:43.687Z,9.70
2023-03-22T03:24:43.686Z,9.63
2023-03-22T03:25:43.764Z,9.61
2023-03-22T03:26:43.630Z,9.67
2023-03-22T03:27:43.639Z,9.68
2023-03-22T03:28:43.628Z,9.67
2023-03-22T03:29:43.614Z,9.64
2023-03-22T03:30:43.589Z,9.60
2023-03-22T03:31:43.602Z,9.53
2023-03-22T03:32:43.569Z,9.46
2023-03-22T03:33:43.561Z,9.39
2023-03-22T03:34:43.535Z,9.39
2023-03-22T03:35:43.611Z,9.38
2023-03-22T03:36:42.988Z,9.34
2023-03-22T03:37:43.499Z,9.32
2023-03-22T03:38:43.488Z,9.31
2023-03-22T03:39:43.478Z,9.28
2023-03-22T03:40:43.446Z,9.27
2023-03-22T03:41:43.430Z,9.24
2023-03-22T03:42:43.436Z,9.23
2023-03-22T03:43:43.425Z,9.20
2023-03-22T03:44:43.429Z,9.25
2023-03-22T03:45:43.443Z,9.28
2023-03-22T03:46:43.378Z,9.28
2023-03-22T03:47:44.118Z,9.21
2023-03-22T03:48:43.366Z,9.20
2023-03-22T03:49:43.345Z,9.18
2023-03-22T03:50:43.333Z,9.23
2023-03-22T03:51:43.330Z,9.23
2023-03-22T03:52:43.331Z,9.21
2023-03-22T03:53:43.012Z,9.20
2023-03-22T03:54:43.272Z,9.16
2023-03-22T03:55:43.003Z,9.13
2023-03-22T03:56:43.010Z,9.12
2023-03-22T03:57:43.011Z,9.12
2023-03-22T03:58:43.011Z,9.06
2023-03-22T03:59:43.220Z,9.06
2023-03-22T04:00:43.188Z,9.09
2023-03-22T04:01:43.178Z,9.09
2023-03-22T04:02:43.152Z,9.09
2023-03-22T04:03:43.153Z,9.12
2023-03-22T04:04:42.620Z,9.06
2023-03-22T04:05:43.136Z,9.04
2023-03-22T04:06:43.121Z,9.02
2023-03-22T04:07:42.669Z,8.99
2023-03-22T04:08:43.088Z,9.04
2023-03-22T04:09:43.078Z,9.05
2023-03-22T04:10:43.066Z,9.09
2023-03-22T04:11:42.837Z,9.15
2023-03-22T04:12:42.866Z,9.20
2023-03-22T04:13:43.038Z,9.21
2023-03-22T04:14:43.009Z,9.18
2023-03-22T04:15:42.996Z,9.13
2023-03-22T04:16:42.998Z,9.12
2023-03-22T04:17:43.705Z,9.13
2023-03-22T04:18:42.957Z,9.06
2023-03-22T04:19:43.665Z,9.09
2023-03-22T04:20:42.926Z,9.20
2023-03-22T04:21:43.634Z,9.28
2023-03-22T04:22:42.871Z,9.30
2023-03-22T04:23:43.604Z,9.30
2023-03-22T04:24:43.618Z,9.28
2023-03-22T04:25:42.883Z,9.27
2023-03-22T04:26:42.849Z,9.18
2023-03-22T04:27:42.816Z,9.16
2023-03-22T04:28:42.811Z,9.18
2023-03-22T04:29:42.808Z,9.21
2023-03-22T04:30:43.274Z,9.20
2023-03-22T04:31:42.058Z,9.13
2023-03-22T04:32:42.743Z,9.13
2023-03-22T04:33:42.757Z,9.12
2023-03-22T04:34:42.729Z,9.09
2023-03-22T04:35:42.732Z,9.06
2023-03-22T04:36:42.718Z,9.09
2023-03-22T04:37:42.684Z,9.06
2023-03-22T04:38:42.684Z,9.09
2023-03-22T04:39:42.686Z,9.09
2023-03-22T04:40:43.375Z,9.09
2023-03-22T04:41:42.643Z,9.06
2023-03-22T04:42:42.607Z,8.99
2023-03-22T04:43:42.631Z,8.97
2023-03-22T04:44:42.602Z,8.97
2023-03-22T04:45:42.595Z,8.97
2023-03-22T04:46:43.343Z,8.96
2023-03-22T04:47:42.565Z,9.01
2023-03-22T04:48:42.549Z,9.05
2023-03-22T04:49:42.530Z,9.02
2023-03-22T04:50:42.532Z,9.05
2023-03-22T04:51:42.506Z,9.12
2023-03-22T04:52:42.488Z,9.12
2023-03-22T04:53:42.488Z,9.15
2023-03-22T04:54:42.472Z,9.20
2023-03-22T04:55:42.458Z,9.21
2023-03-22T04:56:42.437Z,9.18
2023-03-22T04:57:42.403Z,9.13
2023-03-22T04:58:42.408Z,9.06
2023-03-22T04:59:42.398Z,9.06
2023-03-22T05:00:42.632Z,9.06
2023-03-22T05:01:42.447Z,9.09
2023-03-22T05:02:42.405Z,9.13
2023-03-22T05:03:42.343Z,9.12
2023-03-22T05:04:42.346Z,9.10
2023-03-22T05:05:42.074Z,9.10
2023-03-22T05:06:42.063Z,9.12
2023-03-22T05:07:42.085Z,9.12
2023-03-22T05:08:42.078Z,9.12
2023-03-22T05:09:42.047Z,9.13
2023-03-22T05:10:42.321Z,9.18
2023-03-22T05:11:42.077Z,9.21
2023-03-22T05:12:42.205Z,9.28
2023-03-22T05:13:42.085Z,9.30
2023-03-22T05:14:41.628Z,9.23
2023-03-22T05:15:42.997Z,9.25
2023-03-22T05:16:41.466Z,9.28
2023-03-22T05:17:42.149Z,9.30
2023-03-22T05:18:42.155Z,9.32
2023-03-22T05:19:42.079Z,9.40
2023-03-22T05:20:42.366Z,9.40
2023-03-22T05:21:42.096Z,9.35
2023-03-22T05:22:41.464Z,9.39
2023-03-22T05:23:42.067Z,9.38
2023-03-22T05:24:41.406Z,9.35
2023-03-22T05:25:42.038Z,9.42
2023-03-22T05:26:42.036Z,9.42
2023-03-22T05:27:42.001Z,9.46
2023-03-22T05:28:42.016Z,9.46
2023-03-22T05:29:41.992Z,9.43
2023-03-22T05:30:41.998Z,9.48
2023-03-22T05:31:42.007Z,9.49
2023-03-22T05:32:41.924Z,9.42
2023-03-22T05:33:41.932Z,9.43
2023-03-22T05:34:41.692Z,9.42
2023-03-22T05:35:41.964Z,9.42
2023-03-22T05:36:41.912Z,9.43
2023-03-22T05:37:41.852Z,9.45
2023-03-22T05:38:41.873Z,9.42
2023-03-22T05:39:41.856Z,9.38
2023-03-22T05:40:42.062Z,9.46
2023-03-22T05:41:41.823Z,9.42
2023-03-22T05:42:41.793Z,9.45
2023-03-22T05:43:41.827Z,9.49
2023-03-22T05:44:41.791Z,9.50
2023-03-22T05:45:41.775Z,9.49
2023-03-22T05:46:41.827Z,9.50
2023-03-22T05:47:41.767Z,9.48
2023-03-22T05:48:41.709Z,9.56
2023-03-22T05:49:41.724Z,9.56
2023-03-22T05:50:41.701Z,9.56
2023-03-22T05:51:41.728Z,9.53
2023-03-22T05:52:41.671Z,9.56
2023-03-22T05:53:41.662Z,9.57
2023-03-22T05:54:41.681Z,9.58
2023-03-22T05:55:41.650Z,9.61
2023-03-22T05:56:41.627Z,9.66
2023-03-22T05:57:41.629Z,9.60
2023-03-22T05:58:41.596Z,9.63
2023-03-22T05:59:41.588Z,9.64
2023-03-22T06:00:41.784Z,9.64
2023-03-22T06:01:42.301Z,9.63
2023-03-22T06:02:41.622Z,9.67
2023-03-22T06:03:41.500Z,9.67
2023-03-22T06:04:41.513Z,9.68
2023-03-22T06:05:41.489Z,9.68
2023-03-22T06:06:41.481Z,9.70
2023-03-22T06:07:41.469Z,9.71
2023-03-22T06:08:41.431Z,9.71
2023-03-22T06:09:41.461Z,9.76
2023-03-22T06:10:41.807Z,9.78
2023-03-22T06:11:41.488Z,9.67
2023-03-22T06:12:41.406Z,9.76
2023-03-22T06:13:41.356Z,9.79
2023-03-22T06:14:41.384Z,9.85
2023-03-22T06:15:40.736Z,9.88
2023-03-22T06:16:41.396Z,9.81
2023-03-22T06:17:41.335Z,9.82
2023-03-22T06:18:42.054Z,9.88
2023-03-22T06:19:41.331Z,9.91
2023-03-22T06:20:41.143Z,9.91
2023-03-22T06:21:41.056Z,9.99
2023-03-22T06:22:41.265Z,9.99
2023-03-22T06:23:41.129Z,10.03
2023-03-22T06:24:41.244Z,10.04
2023-03-22T06:25:41.136Z,10.09
2023-03-22T06:26:41.212Z,10.10
2023-03-22T06:27:41.213Z,10.12
2023-03-22T06:28:41.168Z,10.15
2023-03-22T06:29:41.180Z,10.10
2023-03-22T06:30:42.298Z,10.15
2023-03-22T06:31:41.136Z,10.14
2023-03-22T06:32:41.846Z,10.21
2023-03-22T06:33:41.859Z,10.26
2023-03-22T06:34:41.822Z,10.22
2023-03-22T06:35:41.868Z,10.24
2023-03-22T06:36:41.803Z,10.18
2023-03-22T06:37:41.791Z,10.22
2023-03-22T06:38:41.804Z,10.28
2023-03-22T06:39:40.787Z,10.33
2023-03-22T06:40:41.982Z,10.26
2023-03-22T06:41:41.019Z,10.34
2023-03-22T06:42:41.711Z,10.36
2023-03-22T06:43:41.714Z,10.30
2023-03-22T06:44:40.235Z,10.33
2023-03-22T06:45:41.016Z,10.42
2023-03-22T06:46:40.925Z,10.44
2023-03-22T06:47:41.036Z,10.53
2023-03-22T06:48:40.893Z,10.55
2023-03-22T06:49:41.614Z,10.42
2023-03-22T06:50:43.981Z,10.43
2023-03-22T06:51:40.874Z,10.51
2023-03-22T06:52:40.862Z,10.60
2023-03-22T06:53:40.820Z,10.74
2023-03-22T06:54:40.838Z,10.65
2023-03-22T06:55:41.041Z,10.65
2023-03-22T06:56:40.811Z,10.73
2023-03-22T06:57:40.796Z,10.80
2023-03-22T06:58:40.748Z,10.77
2023-03-22T06:59:40.757Z,10.74
2023-03-22T07:00:40.860Z,10.77
2023-03-22T07:01:40.733Z,10.76
2023-03-22T07:02:40.719Z,10.77
2023-03-22T07:03:40.706Z,10.83
2023-03-22T07:04:40.692Z,10.91
2023-03-22T07:05:40.690Z,10.89
2023-03-22T07:06:40.656Z,10.96
2023-03-22T07:07:40.651Z,11.02
2023-03-22T07:08:40.649Z,11.01
2023-03-22T07:09:40.599Z,11.09
2023-03-22T07:10:40.776Z,11.10
2023-03-22T07:11:40.597Z,11.19
2023-03-22T07:12:40.573Z,11.20
2023-03-22T07:13:40.564Z,11.25
2023-03-22T07:14:40.528Z,11.17
2023-03-22T07:15:40.583Z,11.25
2023-03-22T07:16:40.529Z,11.17
2023-03-22T07:17:40.529Z,11.29
2023-03-22T07:18:40.510Z,11.27
2023-03-22T07:19:40.462Z,11.32
2023-03-22T07:20:40.285Z,11.36
2023-03-22T07:21:40.469Z,11.53
2023-03-22T07:22:40.441Z,11.57
2023-03-22T07:23:40.444Z,11.74
2023-03-22T07:24:50.337Z,11.89
2023-03-22T07:25:41.417Z,11.75
2023-03-22T07:26:40.172Z,11.65
2023-03-22T07:27:40.381Z,11.86
2023-03-22T07:28:40.178Z,11.90
2023-03-22T07:29:40.170Z,12.13
2023-03-22T07:30:40.352Z,11.99
2023-03-22T07:31:40.167Z,11.78
2023-03-22T07:32:40.213Z,12.16
2023-03-22T07:33:40.635Z,12.02
2023-03-22T07:34:40.179Z,11.77
2023-03-22T07:35:40.292Z,12.08
2023-03-22T07:36:40.188Z,12.33
2023-03-22T07:37:40.087Z,12.41
2023-03-22T07:38:40.229Z,12.24
2023-03-22T07:39:40.189Z,12.27
2023-03-22T07:40:40.366Z,12.20
2023-03-22T07:41:40.926Z,12.33
2023-03-22T07:42:39.452Z,12.69
2023-03-22T07:43:53.186Z,12.45
2023-03-22T07:44:41.897Z,12.46
2023-03-22T07:45:40.139Z,12.42
2023-03-22T07:46:40.184Z,12.29
2023-03-22T07:47:41.342Z,12.49
2023-03-22T07:48:40.090Z,12.49
2023-03-22T07:49:40.070Z,12.62
2023-03-22T07:50:40.215Z,12.38
2023-03-22T07:51:40.052Z,12.23
2023-03-22T07:52:40.054Z,12.26
2023-03-22T07:53:40.753Z,12.49
2023-03-22T07:54:39.779Z,12.57
2023-03-22T07:55:39.999Z,12.59
2023-03-22T07:56:39.997Z,12.66
2023-03-22T07:57:39.981Z,12.71
2023-03-22T07:58:39.988Z,13.02
2023-03-22T07:59:40.279Z,13.32
2023-03-22T08:00:40.163Z,13.98
2023-03-22T08:01:39.927Z,14.19
2023-03-22T08:02:40.011Z,14.32
2023-03-22T08:03:39.162Z,15.35
2023-03-22T08:04:40.792Z,15.43
2023-03-22T08:05:40.039Z,15.66
2023-03-22T08:06:39.857Z,15.54
2023-03-22T08:07:39.837Z,15.70
2023-03-22T08:08:39.831Z,15.78
2023-03-22T08:09:39.820Z,15.61
2023-03-22T08:10:39.998Z,15.56
2023-03-22T08:11:39.786Z,15.27
2023-03-22T08:12:39.776Z,15.39
2023-03-22T08:13:39.770Z,15.05
2023-03-22T08:14:39.751Z,15.01
2023-03-22T08:15:40.850Z,14.43
2023-03-22T08:16:39.727Z,14.46
2023-03-22T08:17:39.749Z,14.02
2023-03-22T08:18:39.683Z,14.09
2023-03-22T08:19:39.216Z,14.94
2023-03-22T08:20:40.069Z,15.84
2023-03-22T08:21:39.639Z,16.56
2023-03-22T08:22:39.221Z,16.40
2023-03-22T08:23:42.196Z,15.54
2023-03-22T08:24:39.606Z,15.51
2023-03-22T08:25:39.578Z,15.26
2023-03-22T08:26:39.595Z,14.95
2023-03-22T08:27:39.575Z,15.05
2023-03-22T08:28:39.557Z,14.38
2023-03-22T08:29:39.540Z,14.28
2023-03-22T08:30:39.769Z,14.32
2023-03-22T08:31:39.541Z,14.31
2023-03-22T08:32:39.499Z,14.52
2023-03-22T08:33:39.487Z,14.83
2023-03-22T08:34:39.481Z,15.03
2023-03-22T08:35:39.037Z,15.03
2023-03-22T08:36:39.469Z,14.72
2023-03-22T08:37:39.430Z,14.69
2023-03-22T08:38:39.048Z,14.94
2023-03-22T08:39:39.396Z,14.62
2023-03-22T08:40:39.135Z,14.32
2023-03-22T08:41:39.128Z,14.47
2023-03-22T08:42:39.370Z,14.62
2023-03-22T08:43:39.191Z,14.67
2023-03-22T08:44:39.344Z,14.71
2023-03-22T08:45:39.654Z,14.80
2023-03-22T08:46:39.263Z,15.28
2023-03-22T08:47:40.030Z,15.49
2023-03-22T08:48:39.244Z,14.88
2023-03-22T08:49:39.997Z,14.80
2023-03-22T08:50:39.982Z,15.24
2023-03-22T08:51:39.258Z,15.64
2023-03-22T08:52:39.940Z,15.85
2023-03-22T08:53:39.927Z,15.46
2023-03-22T08:54:39.935Z,15.03
2023-03-22T08:55:40.163Z,15.12
2023-03-22T08:56:39.904Z,15.03
2023-03-22T08:57:39.866Z,15.68
2023-03-22T08:58:39.877Z,15.56
2023-03-22T08:59:39.843Z,15.08
2023-03-22T09:00:48.615Z,15.23
2023-03-22T09:01:40.195Z,15.09
2023-03-22T09:02:39.088Z,14.94
2023-03-22T09:03:39.072Z,14.67
2023-03-22T09:04:39.101Z,14.83
2023-03-22T09:05:39.261Z,14.87
2023-03-22T09:06:39.026Z,15.08
2023-03-22T09:07:38.279Z,15.49
2023-03-22T09:08:39.002Z,16.03
2023-03-22T09:09:38.988Z,15.94
2023-03-22T09:10:38.951Z,15.92
2023-03-22T09:11:38.959Z,16.25
2023-03-22T09:12:38.256Z,15.85
2023-03-22T09:13:38.945Z,15.97
2023-03-22T09:14:39.632Z,16.06
2023-03-22T09:15:38.386Z,16.03
2023-03-22T09:16:38.922Z,16.11
2023-03-22T09:17:38.880Z,16.83
2023-03-22T09:18:38.868Z,17.17
2023-03-22T09:19:38.854Z,17.46
2023-03-22T09:20:38.452Z,17.92
2023-03-22T09:21:38.821Z,17.51
2023-03-22T09:22:38.809Z,16.62
2023-03-22T09:23:38.268Z,16.07
2023-03-22T09:24:38.806Z,17.07
2023-03-22T09:25:38.910Z,17.04
2023-03-22T09:26:38.720Z,17.13
2023-03-22T09:27:38.735Z,16.78
2023-03-22T09:28:38.804Z,16.37
2023-03-22T09:29:38.714Z,16.49
2023-03-22T09:30:38.926Z,16.15
2023-03-22T09:31:38.032Z,15.85
2023-03-22T09:32:39.890Z,15.52
2023-03-22T09:33:38.647Z,15.54
2023-03-22T09:34:38.649Z,15.92
2023-03-22T09:35:38.882Z,16.06
2023-03-22T09:36:37.903Z,15.79
2023-03-22T09:37:38.598Z,15.51
2023-03-22T09:38:38.582Z,15.94
2023-03-22T09:39:38.575Z,16.03
2023-03-22T09:40:38.570Z,16.52
2023-03-22T09:41:38.524Z,16.31
2023-03-22T09:42:38.305Z,16.23
2023-03-22T09:43:38.275Z,16.58
2023-03-22T09:44:38.280Z,16.70
2023-03-22T09:45:38.963Z,16.22
2023-03-22T09:46:38.529Z,16.07
2023-03-22T09:47:45.505Z,16.33
2023-03-22T09:48:39.438Z,15.96
2023-03-22T09:49:52.201Z,15.81
2023-03-22T09:50:39.055Z,15.81
2023-03-22T09:51:38.387Z,15.89
2023-03-22T09:52:37.927Z,15.43
2023-03-22T09:53:38.286Z,14.88
2023-03-22T09:54:38.291Z,15.06
2023-03-22T09:55:37.877Z,15.19
2023-03-22T09:56:38.319Z,15.84
2023-03-22T09:57:38.534Z,16.33
2023-03-22T09:58:38.345Z,16.23
2023-03-22T09:59:39.016Z,16.52
2023-03-22T10:00:38.439Z,17.08
2023-03-22T10:01:38.547Z,17.51
2023-03-22T10:02:38.283Z,17.97
2023-03-22T10:03:38.258Z,17.38
2023-03-22T10:04:38.974Z,17.17
2023-03-22T10:05:38.389Z,17.46
2023-03-22T10:06:38.180Z,17.40
2023-03-22T10:07:38.181Z,17.62
2023-03-22T10:08:38.173Z,17.55
2023-03-22T10:09:38.166Z,18.46
2023-03-22T10:10:38.140Z,18.17
2023-03-22T10:11:38.111Z,17.76
2023-03-22T10:12:38.108Z,17.76
2023-03-22T10:13:38.101Z,18.17
2023-03-22T10:14:38.115Z,18.79
2023-03-22T10:15:38.359Z,18.97
2023-03-22T10:16:38.083Z,19.21
2023-03-22T10:17:38.046Z,18.99
2023-03-22T10:18:38.041Z,18.58
2023-03-22T10:19:38.041Z,18.00
2023-03-22T10:20:38.004Z,16.99
2023-03-22T10:21:37.976Z,16.83
2023-03-22T10:22:37.970Z,16.81
2023-03-22T10:23:37.956Z,16.85
2023-03-22T10:24:37.952Z,16.38
2023-03-22T10:25:38.402Z,16.52
2023-03-22T10:26:37.934Z,16.49
2023-03-22T10:27:37.911Z,16.50
2023-03-22T10:28:37.900Z,16.45
2023-03-22T10:29:37.881Z,17.18
2023-03-22T10:30:37.887Z,16.92
2023-03-22T10:31:37.903Z,16.71
2023-03-22T10:32:51.098Z,16.35
2023-03-22T10:33:38.827Z,15.68
2023-03-22T10:34:37.830Z,15.88
2023-03-22T10:35:38.099Z,16.07
2023-03-22T10:36:37.767Z,16.59
2023-03-22T10:37:37.770Z,16.41
2023-03-22T10:38:37.745Z,16.65
2023-03-22T10:39:39.362Z,16.81
2023-03-22T10:40:37.732Z,16.86
2023-03-22T10:41:37.737Z,17.30
2023-03-22T10:42:38.454Z,17.89
2023-03-22T10:43:37.366Z,18.34
2023-03-22T10:44:37.679Z,18.04
2023-03-22T10:45:37.755Z,18.00
2023-03-22T10:46:37.689Z,18.34
2023-03-22T10:47:38.470Z,18.55
2023-03-22T10:48:37.616Z,18.58
2023-03-22T10:49:37.599Z,19.08
2023-03-22T10:50:37.591Z,19.23
2023-03-22T10:51:36.890Z,19.70
2023-03-22T10:52:38.565Z,19.83
2023-03-22T10:53:37.550Z,20.03
2023-03-22T10:54:37.547Z,20.10
2023-03-22T10:55:37.535Z,20.31
2023-03-22T10:56:37.520Z,19.20
2023-03-22T10:57:38.340Z,20.16
2023-03-22T10:58:37.482Z,18.70
2023-03-22T10:59:36.910Z,17.57
2023-03-22T11:00:41.225Z,18.40
2023-03-22T11:01:37.647Z,19.46
2023-03-22T11:02:36.962Z,18.94
2023-03-22T11:03:37.415Z,20.12
2023-03-22T11:04:36.930Z,20.28
2023-03-22T11:05:37.400Z,20.10
2023-03-22T11:06:37.374Z,18.44
2023-03-22T11:07:36.914Z,17.63
2023-03-22T11:08:37.354Z,17.28
2023-03-22T11:09:37.335Z,17.44
2023-03-22T11:10:36.929Z,17.50
2023-03-22T11:11:38.035Z,17.50
2023-03-22T11:12:39.872Z,17.66
2023-03-22T11:13:37.278Z,17.55
2023-03-22T11:14:37.287Z,17.63
2023-03-22T11:15:37.279Z,17.69
2023-03-22T11:16:37.293Z,17.95
2023-03-22T11:17:37.210Z,18.03
2023-03-22T11:18:37.207Z,17.88
2023-03-22T11:19:37.210Z,17.54
2023-03-22T11:20:37.276Z,17.63
2023-03-22T11:21:37.167Z,17.85
2023-03-22T11:22:37.121Z,17.94
2023-03-22T11:23:37.143Z,17.79
2023-03-22T11:24:37.125Z,17.38
2023-03-22T11:25:37.125Z,17.00
2023-03-22T11:26:40.582Z,17.28
2023-03-22T11:27:37.093Z,17.07
2023-03-22T11:28:37.103Z,17.04
2023-03-22T11:29:37.775Z,17.99
2023-03-22T11:30:37.053Z,18.52
2023-03-22T11:31:37.135Z,18.73
2023-03-22T11:32:37.055Z,18.76
2023-03-22T11:33:37.016Z,18.22
2023-03-22T11:34:36.992Z,18.92
2023-03-22T11:35:37.089Z,18.87
2023-03-22T11:36:36.989Z,18.02
2023-03-22T11:37:36.934Z,17.44
2023-03-22T11:38:37.009Z,17.67
2023-03-22T11:39:36.964Z,17.47
2023-03-22T11:40:36.954Z,17.46
2023-03-22T11:41:36.902Z,17.67
2023-03-22T11:42:36.856Z,17.82
2023-03-22T11:43:36.882Z,17.76
2023-03-22T11:44:36.855Z,17.53
2023-03-22T11:45:36.839Z,17.71
2023-03-22T11:46:36.901Z,17.57
2023-03-22T11:47:36.835Z,17.57
2023-03-22T11:48:36.942Z,17.48
2023-03-22T11:49:36.790Z,17.47
2023-03-22T11:50:36.806Z,17.55
2023-03-22T11:51:36.766Z,17.69
2023-03-22T11:52:36.748Z,17.71
2023-03-22T11:53:36.761Z,17.95
2023-03-22T11:54:36.720Z,17.87
2023-03-22T11:55:36.705Z,18.31
2023-03-22T11:56:36.700Z,17.89
2023-03-22T11:57:36.691Z,17.50
2023-03-22T11:58:36.655Z,17.71
2023-03-22T11:59:36.392Z,17.95
2023-03-22T12:00:36.420Z,18.07
2023-03-22T12:01:36.637Z,18.42
2023-03-22T12:02:36.695Z,18.84
2023-03-22T12:03:38.957Z,19.33
2023-03-22T12:04:36.629Z,18.98
2023-03-22T12:05:35.999Z,17.63
2023-03-22T12:06:36.662Z,18.03
2023-03-22T12:07:36.044Z,18.27
2023-03-22T12:08:36.576Z,17.79
2023-03-22T12:09:36.529Z,18.04
2023-03-22T12:10:36.137Z,18.39
2023-03-22T12:11:36.154Z,18.18
2023-03-22T12:12:36.498Z,17.92
2023-03-22T12:13:36.221Z,18.18
2023-03-22T12:14:36.448Z,18.40
2023-03-22T12:15:36.349Z,18.92
2023-03-22T12:16:36.455Z,19.39
2023-03-22T12:17:36.425Z,19.11
2023-03-22T12:18:37.223Z,19.11
2023-03-22T12:19:37.083Z,18.98
2023-03-22T12:20:37.144Z,18.68
2023-03-22T12:21:37.073Z,18.82
2023-03-22T12:22:37.062Z,19.05
2023-03-22T12:23:37.078Z,19.10
2023-03-22T12:24:37.044Z,18.91
2023-03-22T12:25:36.298Z,18.49
2023-03-22T12:26:37.006Z,18.43
2023-03-22T12:27:37.012Z,18.50
2023-03-22T12:28:36.992Z,18.74
2023-03-22T12:29:36.986Z,19.95
2023-03-22T12:30:36.957Z,20.27
2023-03-22T12:31:36.244Z,20.77
2023-03-22T12:32:36.286Z,20.84
2023-03-22T12:33:36.173Z,21.48
2023-03-22T12:34:36.189Z,20.43
2023-03-22T12:35:36.218Z,19.63
2023-03-22T12:36:36.165Z,19.23
2023-03-22T12:37:36.143Z,18.98
2023-03-22T12:38:36.119Z,18.91
2023-03-22T12:39:36.120Z,18.95
2023-03-22T12:40:36.113Z,18.64
2023-03-22T12:41:36.091Z,18.79
2023-03-22T12:42:40.483Z,18.79
2023-03-22T12:43:37.040Z,18.76
2023-03-22T12:44:36.059Z,18.70
2023-03-22T12:45:36.050Z,18.86
2023-03-22T12:46:36.062Z,18.99
2023-03-22T12:47:36.022Z,18.98
2023-03-22T12:48:36.037Z,18.90
2023-03-22T12:49:35.995Z,19.28
2023-03-22T12:50:35.978Z,19.50
2023-03-22T12:51:36.674Z,19.40
2023-03-22T12:52:44.766Z,19.28
2023-03-22T12:53:36.904Z,19.15
2023-03-22T12:54:35.913Z,19.36
2023-03-22T12:55:35.914Z,19.39
2023-03-22T12:56:35.887Z,19.11
2023-03-22T12:57:35.881Z,18.91
2023-03-22T12:58:35.840Z,19.14